sensor_id;sensor_type;location;lat;lon;timestamp;P1;durP1;ratioP1;P2;durP2;ratioP2
18796;SDS011;9526;52.612;13.300;2023-07-28T00:01:57;1.00;;;0.90;;
18796;SDS011;9526;52.612;13.300;2023-07-28T00:04:21;2.35;;;0.95;;
18796;SDS011;9526;52.612;13.300;2023-07-28T00:06:44;1.23;;;0.80;;
18796;SDS011;9526;52.612;13.300;2023-07-28T00:09:08;0.68;;;0.63;;
18796;SDS011;9526;52.612;13.300;2023-07-28T00:11:32;0.98;;;0.70;;
18796;SDS011;9526;52.612;13.300;2023-07-28T00:13:57;0.77;;;0.77;;
18796;SDS011;9526;52.612;13.300;2023-07-28T00:16:20;1.35;;;0.80;;
18796;SDS011;9526;52.612;13.300;2023-07-28T00:18:44;0.75;;;0.75;;
18796;SDS011;9526;52.612;13.300;2023-07-28T00:21:08;1.05;;;0.80;;
18796;SDS011;9526;52.612;13.300;2023-07-28T00:23:31;0.95;;;0.90;;
18796;SDS011;9526;52.612;13.300;2023-07-28T00:25:55;1.38;;;0.80;;
18796;SDS011;9526;52.612;13.300;2023-07-28T00:28:19;0.88;;;0.88;;
18796;SDS011;9526;52.612;13.300;2023-07-28T00:30:44;0.88;;;0.88;;
18796;SDS011;9526;52.612;13.300;2023-07-28T00:33:11;1.10;;;1.00;;
18796;SDS011;9526;52.612;13.300;2023-07-28T00:35:35;1.90;;;1.05;;
18796;SDS011;9526;52.612;13.300;2023-07-28T00:37:58;1.35;;;1.20;;
18796;SDS011;9526;52.612;13.300;2023-07-28T00:40:22;0.52;;;0.52;;
18796;SDS011;9526;52.612;13.300;2023-07-28T00:42:46;1.20;;;1.10;;
18796;SDS011;9526;52.612;13.300;2023-07-28T00:45:10;1.60;;;1.42;;
18796;SDS011;9526;52.612;13.300;2023-07-28T00:47:35;1.67;;;1.38;;
18796;SDS011;9526;52.612;13.300;2023-07-28T00:49:59;1.40;;;1.30;;
18796;SDS011;9526;52.612;13.300;2023-07-28T00:52:24;1.60;;;1.50;;
18796;SDS011;9526;52.612;13.300;2023-07-28T00:54:47;2.58;;;1.50;;
18796;SDS011;9526;52.612;13.300;2023-07-28T00:57:11;1.50;;;1.30;;
18796;SDS011;9526;52.612;13.300;2023-07-28T00:59:36;1.77;;;1.35;;
18796;SDS011;9526;52.612;13.300;2023-07-28T01:01:59;1.65;;;1.27;;
18796;SDS011;9526;52.612;13.300;2023-07-28T01:04:25;1.52;;;1.42;;
18796;SDS011;9526;52.612;13.300;2023-07-28T01:06:51;1.20;;;1.10;;
18796;SDS011;9526;52.612;13.300;2023-07-28T01:09:34;3.00;;;1.20;;
18796;SDS011;9526;52.612;13.300;2023-07-28T01:12:07;1.50;;;1.35;;
18796;SDS011;9526;52.612;13.300;2023-07-28T01:14:31;3.47;;;1.35;;
18796;SDS011;9526;52.612;13.300;2023-07-28T01:16:55;1.40;;;1.30;;
18796;SDS011;9526;52.612;13.300;2023-07-28T01:19:19;1.58;;;1.48;;
18796;SDS011;9526;52.612;13.300;2023-07-28T01:21:47;1.60;;;1.40;;
18796;SDS011;9526;52.612;13.300;2023-07-28T01:24:51;1.73;;;1.50;;
18796;SDS011;9526;52.612;13.300;2023-07-28T01:27:30;1.48;;;1.30;;
18796;SDS011;9526;52.612;13.300;2023-07-28T01:29:55;4.05;;;1.38;;
18796;SDS011;9526;52.612;13.300;2023-07-28T01:32:19;4.15;;;1.50;;
18796;SDS011;9526;52.612;13.300;2023-07-28T01:34:43;1.67;;;1.45;;
18796;SDS011;9526;52.612;13.300;2023-07-28T01:37:06;1.60;;;1.50;;
18796;SDS011;9526;52.612;13.300;2023-07-28T01:39:30;1.35;;;1.10;;
18796;SDS011;9526;52.612;13.300;2023-07-28T01:41:55;1.45;;;1.30;;
18796;SDS011;9526;52.612;13.300;2023-07-28T01:44:20;2.17;;;1.48;;
18796;SDS011;9526;52.612;13.300;2023-07-28T01:46:43;1.92;;;1.40;;
18796;SDS011;9526;52.612;13.300;2023-07-28T01:49:07;2.22;;;1.20;;
18796;SDS011;9526;52.612;13.300;2023-07-28T01:51:34;1.88;;;1.40;;
18796;SDS011;9526;52.612;13.300;2023-07-28T01:53:57;1.67;;;1.38;;
18796;SDS011;9526;52.612;13.300;2023-07-28T01:56:21;2.08;;;1.33;;
18796;SDS011;9526;52.612;13.300;2023-07-28T01:58:45;1.73;;;1.58;;
18796;SDS011;9526;52.612;13.300;2023-07-28T02:01:10;2.05;;;1.67;;
18796;SDS011;9526;52.612;13.300;2023-07-28T02:03:35;3.33;;;1.63;;
18796;SDS011;9526;52.612;13.300;2023-07-28T02:06:00;3.28;;;1.58;;
18796;SDS011;9526;52.612;13.300;2023-07-28T02:08:24;2.00;;;1.65;;
18796;SDS011;9526;52.612;13.300;2023-07-28T02:10:47;2.10;;;1.70;;
18796;SDS011;9526;52.612;13.300;2023-07-28T02:13:11;2.20;;;1.60;;
18796;SDS011;9526;52.612;13.300;2023-07-28T02:15:35;2.17;;;1.65;;
18796;SDS011;9526;52.612;13.300;2023-07-28T02:18:03;3.85;;;1.88;;
18796;SDS011;9526;52.612;13.300;2023-07-28T02:20:27;3.33;;;1.75;;
18796;SDS011;9526;52.612;13.300;2023-07-28T02:22:50;2.00;;;1.80;;
18796;SDS011;9526;52.612;13.300;2023-07-28T02:25:14;2.25;;;1.92;;
18796;SDS011;9526;52.612;13.300;2023-07-28T02:27:38;4.13;;;2.17;;
18796;SDS011;9526;52.612;13.300;2023-07-28T02:30:03;3.75;;;2.08;;
18796;SDS011;9526;52.612;13.300;2023-07-28T02:32:28;2.38;;;1.80;;
18796;SDS011;9526;52.612;13.300;2023-07-28T02:34:53;4.90;;;2.00;;
18796;SDS011;9526;52.612;13.300;2023-07-28T02:37:17;6.53;;;2.10;;
18796;SDS011;9526;52.612;13.300;2023-07-28T02:39:41;2.35;;;1.88;;
18796;SDS011;9526;52.612;13.300;2023-07-28T02:42:05;2.90;;;1.90;;
18796;SDS011;9526;52.612;13.300;2023-07-28T02:44:29;3.35;;;2.20;;
18796;SDS011;9526;52.612;13.300;2023-07-28T02:46:52;4.75;;;2.28;;
18796;SDS011;9526;52.612;13.300;2023-07-28T02:49:16;5.93;;;2.30;;
18796;SDS011;9526;52.612;13.300;2023-07-28T02:51:41;3.63;;;2.30;;
18796;SDS011;9526;52.612;13.300;2023-07-28T02:54:05;3.47;;;2.20;;
18796;SDS011;9526;52.612;13.300;2023-07-28T02:56:28;7.40;;;2.45;;
18796;SDS011;9526;52.612;13.300;2023-07-28T02:58:56;4.57;;;2.70;;
18796;SDS011;9526;52.612;13.300;2023-07-28T03:01:20;6.20;;;2.80;;
18796;SDS011;9526;52.612;13.300;2023-07-28T03:03:44;4.75;;;2.75;;
18796;SDS011;9526;52.612;13.300;2023-07-28T03:06:09;5.25;;;2.65;;
18796;SDS011;9526;52.612;13.300;2023-07-28T03:08:35;4.47;;;3.28;;
18796;SDS011;9526;52.612;13.300;2023-07-28T03:11:19;4.20;;;3.10;;
18796;SDS011;9526;52.612;13.300;2023-07-28T03:13:44;5.63;;;2.88;;
18796;SDS011;9526;52.612;13.300;2023-07-28T03:16:08;3.95;;;3.20;;
18796;SDS011;9526;52.612;13.300;2023-07-28T03:18:31;3.65;;;2.80;;
18796;SDS011;9526;52.612;13.300;2023-07-28T03:20:55;4.45;;;3.20;;
18796;SDS011;9526;52.612;13.300;2023-07-28T03:23:19;4.38;;;2.97;;
18796;SDS011;9526;52.612;13.300;2023-07-28T03:25:44;6.22;;;3.50;;
18796;SDS011;9526;52.612;13.300;2023-07-28T03:28:07;4.00;;;2.55;;
18796;SDS011;9526;52.612;13.300;2023-07-28T03:30:31;4.90;;;3.42;;
18796;SDS011;9526;52.612;13.300;2023-07-28T03:32:55;3.95;;;3.10;;
18796;SDS011;9526;52.612;13.300;2023-07-28T03:35:19;4.90;;;3.22;;
18796;SDS011;9526;52.612;13.300;2023-07-28T03:37:52;5.80;;;3.63;;
18796;SDS011;9526;52.612;13.300;2023-07-28T03:40:16;5.10;;;3.30;;
18796;SDS011;9526;52.612;13.300;2023-07-28T03:42:45;4.15;;;3.22;;
18796;SDS011;9526;52.612;13.300;2023-07-28T03:45:09;4.80;;;3.35;;
18796;SDS011;9526;52.612;13.300;2023-07-28T03:47:33;5.03;;;3.30;;
18796;SDS011;9526;52.612;13.300;2023-07-28T03:49:57;5.78;;;3.35;;
18796;SDS011;9526;52.612;13.300;2023-07-28T03:52:20;6.13;;;3.40;;
18796;SDS011;9526;52.612;13.300;2023-07-28T03:54:44;5.63;;;3.40;;
18796;SDS011;9526;52.612;13.300;2023-07-28T03:57:08;3.80;;;3.00;;
18796;SDS011;9526;52.612;13.300;2023-07-28T03:59:34;4.97;;;3.47;;
18796;SDS011;9526;52.612;13.300;2023-07-28T04:01:58;5.80;;;3.40;;
18796;SDS011;9526;52.612;13.300;2023-07-28T04:04:22;5.75;;;3.40;;
18796;SDS011;9526;52.612;13.300;2023-07-28T04:06:46;4.70;;;3.10;;
18796;SDS011;9526;52.612;13.300;2023-07-28T04:09:13;7.53;;;3.70;;
18796;SDS011;9526;52.612;13.300;2023-07-28T04:11:37;4.57;;;3.42;;
18796;SDS011;9526;52.612;13.300;2023-07-28T04:14:01;6.07;;;3.30;;
18796;SDS011;9526;52.612;13.300;2023-07-28T04:16:26;5.43;;;3.67;;
18796;SDS011;9526;52.612;13.300;2023-07-28T04:18:50;5.05;;;3.50;;
18796;SDS011;9526;52.612;13.300;2023-07-28T04:21:14;5.30;;;3.38;;
18796;SDS011;9526;52.612;13.300;2023-07-28T04:23:37;7.93;;;3.63;;
18796;SDS011;9526;52.612;13.300;2023-07-28T04:26:02;5.43;;;3.40;;
18796;SDS011;9526;52.612;13.300;2023-07-28T04:28:32;5.75;;;3.50;;
18796;SDS011;9526;52.612;13.300;2023-07-28T04:30:57;5.35;;;3.67;;
18796;SDS011;9526;52.612;13.300;2023-07-28T04:33:44;4.50;;;3.53;;
18796;SDS011;9526;52.612;13.300;2023-07-28T04:36:07;5.78;;;3.38;;
18796;SDS011;9526;52.612;13.300;2023-07-28T04:38:31;5.32;;;3.88;;
18796;SDS011;9526;52.612;13.300;2023-07-28T04:40:55;7.00;;;3.60;;
18796;SDS011;9526;52.612;13.300;2023-07-28T04:43:36;4.90;;;3.13;;
18796;SDS011;9526;52.612;13.300;2023-07-28T04:46:00;5.68;;;3.58;;
18796;SDS011;9526;52.612;13.300;2023-07-28T04:48:24;5.32;;;3.63;;
18796;SDS011;9526;52.612;13.300;2023-07-28T04:50:49;7.55;;;3.30;;
18796;SDS011;9526;52.612;13.300;2023-07-28T04:53:48;6.57;;;3.70;;
18796;SDS011;9526;52.612;13.300;2023-07-28T04:56:16;5.68;;;3.47;;
18796;SDS011;9526;52.612;13.300;2023-07-28T04:58:39;5.47;;;3.60;;
18796;SDS011;9526;52.612;13.300;2023-07-28T05:01:03;4.43;;;3.38;;
18796;SDS011;9526;52.612;13.300;2023-07-28T05:03:30;5.18;;;3.63;;
18796;SDS011;9526;52.612;13.300;2023-07-28T05:06:09;4.78;;;3.45;;
18796;SDS011;9526;52.612;13.300;2023-07-28T05:08:33;8.68;;;3.85;;
18796;SDS011;9526;52.612;13.300;2023-07-28T05:10:58;4.65;;;3.30;;
18796;SDS011;9526;52.612;13.300;2023-07-28T05:13:24;5.25;;;3.08;;
18796;SDS011;9526;52.612;13.300;2023-07-28T05:15:50;4.72;;;3.63;;
18796;SDS011;9526;52.612;13.300;2023-07-28T05:18:34;5.78;;;3.17;;
18796;SDS011;9526;52.612;13.300;2023-07-28T05:21:26;5.38;;;3.30;;
18796;SDS011;9526;52.612;13.300;2023-07-28T05:23:50;4.93;;;3.22;;
18796;SDS011;9526;52.612;13.300;2023-07-28T05:26:14;4.60;;;3.30;;
18796;SDS011;9526;52.612;13.300;2023-07-28T05:28:38;3.97;;;3.40;;
18796;SDS011;9526;52.612;13.300;2023-07-28T05:31:05;6.68;;;3.50;;
18796;SDS011;9526;52.612;13.300;2023-07-28T05:33:29;4.95;;;3.38;;
18796;SDS011;9526;52.612;13.300;2023-07-28T05:35:58;4.57;;;3.38;;
18796;SDS011;9526;52.612;13.300;2023-07-28T05:38:28;5.50;;;3.20;;
18796;SDS011;9526;52.612;13.300;2023-07-28T05:40:55;4.30;;;3.15;;
18796;SDS011;9526;52.612;13.300;2023-07-28T05:43:20;4.07;;;3.38;;
18796;SDS011;9526;52.612;13.300;2023-07-28T05:45:46;5.72;;;3.28;;
18796;SDS011;9526;52.612;13.300;2023-07-28T05:48:11;7.03;;;3.42;;
18796;SDS011;9526;52.612;13.300;2023-07-28T05:50:37;4.75;;;3.33;;
18796;SDS011;9526;52.612;13.300;2023-07-28T05:53:01;3.97;;;2.67;;
18796;SDS011;9526;52.612;13.300;2023-07-28T05:55:27;3.50;;;2.80;;
18796;SDS011;9526;52.612;13.300;2023-07-28T05:57:52;4.55;;;2.90;;
18796;SDS011;9526;52.612;13.300;2023-07-28T06:00:16;3.17;;;2.63;;
18796;SDS011;9526;52.612;13.300;2023-07-28T06:02:41;4.35;;;2.88;;
18796;SDS011;9526;52.612;13.300;2023-07-28T06:05:19;2.90;;;2.47;;
18796;SDS011;9526;52.612;13.300;2023-07-28T06:07:43;5.20;;;2.75;;
18796;SDS011;9526;52.612;13.300;2023-07-28T06:10:07;3.42;;;2.70;;
18796;SDS011;9526;52.612;13.300;2023-07-28T06:12:32;3.55;;;2.55;;
18796;SDS011;9526;52.612;13.300;2023-07-28T06:14:57;6.80;;;2.88;;
18796;SDS011;9526;52.612;13.300;2023-07-28T06:17:21;3.30;;;2.78;;
18796;SDS011;9526;52.612;13.300;2023-07-28T06:19:45;4.55;;;2.63;;
18796;SDS011;9526;52.612;13.300;2023-07-28T06:22:09;4.75;;;2.58;;
18796;SDS011;9526;52.612;13.300;2023-07-28T06:24:38;5.13;;;3.00;;
18796;SDS011;9526;52.612;13.300;2023-07-28T06:27:02;3.72;;;2.97;;
18796;SDS011;9526;52.612;13.300;2023-07-28T06:29:33;3.80;;;2.97;;
18796;SDS011;9526;52.612;13.300;2023-07-28T06:31:56;4.03;;;2.90;;
18796;SDS011;9526;52.612;13.300;2023-07-28T06:34:20;3.90;;;2.80;;
18796;SDS011;9526;52.612;13.300;2023-07-28T06:36:44;4.93;;;2.85;;
18796;SDS011;9526;52.612;13.300;2023-07-28T06:39:08;4.45;;;3.15;;
18796;SDS011;9526;52.612;13.300;2023-07-28T06:41:31;3.80;;;3.08;;
18796;SDS011;9526;52.612;13.300;2023-07-28T06:44:01;4.55;;;3.00;;
18796;SDS011;9526;52.612;13.300;2023-07-28T06:46:26;3.45;;;2.85;;
18796;SDS011;9526;52.612;13.300;2023-07-28T06:48:51;6.68;;;2.90;;
18796;SDS011;9526;52.612;13.300;2023-07-28T06:51:15;6.15;;;3.30;;
18796;SDS011;9526;52.612;13.300;2023-07-28T06:53:38;3.72;;;2.97;;
18796;SDS011;9526;52.612;13.300;2023-07-28T06:56:02;3.42;;;2.88;;
18796;SDS011;9526;52.612;13.300;2023-07-28T06:58:26;3.75;;;2.85;;
18796;SDS011;9526;52.612;13.300;2023-07-28T07:00:50;3.90;;;2.72;;
18796;SDS011;9526;52.612;13.300;2023-07-28T07:03:16;2.97;;;2.63;;
18796;SDS011;9526;52.612;13.300;2023-07-28T07:05:41;6.75;;;2.72;;
18796;SDS011;9526;52.612;13.300;2023-07-28T07:08:05;2.90;;;2.42;;
18796;SDS011;9526;52.612;13.300;2023-07-28T07:10:29;3.47;;;2.72;;
18796;SDS011;9526;52.612;13.300;2023-07-28T07:12:53;4.47;;;2.50;;
18796;SDS011;9526;52.612;13.300;2023-07-28T07:15:18;3.75;;;2.88;;
18796;SDS011;9526;52.612;13.300;2023-07-28T07:17:41;2.60;;;2.30;;
18796;SDS011;9526;52.612;13.300;2023-07-28T07:20:07;2.72;;;2.45;;
18796;SDS011;9526;52.612;13.300;2023-07-28T07:22:33;3.20;;;2.17;;
18796;SDS011;9526;52.612;13.300;2023-07-28T07:24:56;2.90;;;2.45;;
18796;SDS011;9526;52.612;13.300;2023-07-28T07:27:20;2.85;;;2.20;;
18796;SDS011;9526;52.612;13.300;2023-07-28T07:29:44;2.67;;;2.38;;
18796;SDS011;9526;52.612;13.300;2023-07-28T07:32:07;3.00;;;2.47;;
18796;SDS011;9526;52.612;13.300;2023-07-28T07:34:33;2.70;;;2.10;;
18796;SDS011;9526;52.612;13.300;2023-07-28T07:36:59;3.67;;;2.10;;
18796;SDS011;9526;52.612;13.300;2023-07-28T07:39:24;2.70;;;2.50;;
18796;SDS011;9526;52.612;13.300;2023-07-28T07:41:47;2.05;;;1.85;;
18796;SDS011;9526;52.612;13.300;2023-07-28T07:44:11;3.05;;;2.40;;
18796;SDS011;9526;52.612;13.300;2023-07-28T07:46:35;2.38;;;2.17;;
18796;SDS011;9526;52.612;13.300;2023-07-28T07:48:59;2.55;;;2.35;;
18796;SDS011;9526;52.612;13.300;2023-07-28T07:51:22;2.40;;;2.13;;
18796;SDS011;9526;52.612;13.300;2023-07-28T07:53:47;2.40;;;2.00;;
18796;SDS011;9526;52.612;13.300;2023-07-28T07:56:11;2.83;;;1.90;;
18796;SDS011;9526;52.612;13.300;2023-07-28T07:58:35;3.15;;;2.13;;
18796;SDS011;9526;52.612;13.300;2023-07-28T08:00:59;2.83;;;2.10;;
18796;SDS011;9526;52.612;13.300;2023-07-28T08:03:24;2.17;;;1.77;;
18796;SDS011;9526;52.612;13.300;2023-07-28T08:05:48;1.95;;;1.75;;
18796;SDS011;9526;52.612;13.300;2023-07-28T08:08:13;2.15;;;1.95;;
18796;SDS011;9526;52.612;13.300;2023-07-28T08:10:40;3.40;;;1.60;;
18796;SDS011;9526;52.612;13.300;2023-07-28T08:13:03;2.10;;;1.80;;
18796;SDS011;9526;52.612;13.300;2023-07-28T08:15:27;2.03;;;1.55;;
18796;SDS011;9526;52.612;13.300;2023-07-28T08:17:51;3.45;;;1.50;;
18796;SDS011;9526;52.612;13.300;2023-07-28T08:20:14;1.58;;;1.48;;
18796;SDS011;9526;52.612;13.300;2023-07-28T08:22:38;1.80;;;1.50;;
18796;SDS011;9526;52.612;13.300;2023-07-28T08:25:02;2.17;;;1.52;;
18796;SDS011;9526;52.612;13.300;2023-07-28T08:27:28;1.52;;;1.42;;
18796;SDS011;9526;52.612;13.300;2023-07-28T08:29:52;1.60;;;1.50;;
18796;SDS011;9526;52.612;13.300;2023-07-28T08:32:16;1.52;;;1.42;;
18796;SDS011;9526;52.612;13.300;2023-07-28T08:34:39;1.58;;;1.45;;
18796;SDS011;9526;52.612;13.300;2023-07-28T08:37:03;1.30;;;1.20;;
18796;SDS011;9526;52.612;13.300;2023-07-28T08:39:27;2.45;;;1.42;;
18796;SDS011;9526;52.612;13.300;2023-07-28T08:41:57;1.65;;;1.35;;
18796;SDS011;9526;52.612;13.300;2023-07-28T08:44:23;1.58;;;1.48;;
18796;SDS011;9526;52.612;13.300;2023-07-28T08:46:48;1.63;;;1.50;;
18796;SDS011;9526;52.612;13.300;2023-07-28T08:49:12;2.33;;;1.60;;
18796;SDS011;9526;52.612;13.300;2023-07-28T08:51:40;2.75;;;1.42;;
18796;SDS011;9526;52.612;13.300;2023-07-28T08:54:05;2.00;;;1.20;;
18796;SDS011;9526;52.612;13.300;2023-07-28T08:56:28;1.40;;;1.23;;
18796;SDS011;9526;52.612;13.300;2023-07-28T08:58:57;1.33;;;1.23;;
18796;SDS011;9526;52.612;13.300;2023-07-28T09:01:23;2.63;;;1.15;;
18796;SDS011;9526;52.612;13.300;2023-07-28T09:03:48;1.30;;;1.20;;
18796;SDS011;9526;52.612;13.300;2023-07-28T09:06:12;1.40;;;1.30;;
18796;SDS011;9526;52.612;13.300;2023-07-28T09:08:36;1.40;;;1.23;;
18796;SDS011;9526;52.612;13.300;2023-07-28T09:11:01;1.40;;;1.30;;
18796;SDS011;9526;52.612;13.300;2023-07-28T09:13:32;1.42;;;1.33;;
18796;SDS011;9526;52.612;13.300;2023-07-28T09:15:59;1.50;;;1.40;;
18796;SDS011;9526;52.612;13.300;2023-07-28T09:18:24;1.38;;;1.27;;
18796;SDS011;9526;52.612;13.300;2023-07-28T09:20:50;1.50;;;1.40;;
18796;SDS011;9526;52.612;13.300;2023-07-28T09:23:14;1.45;;;1.30;;
18796;SDS011;9526;52.612;13.300;2023-07-28T09:25:38;1.50;;;1.40;;
18796;SDS011;9526;52.612;13.300;2023-07-28T09:28:01;1.60;;;1.45;;
18796;SDS011;9526;52.612;13.300;2023-07-28T09:30:26;1.70;;;1.33;;
18796;SDS011;9526;52.612;13.300;2023-07-28T09:33:05;1.88;;;1.00;;
18796;SDS011;9526;52.612;13.300;2023-07-28T09:35:30;1.40;;;1.30;;
18796;SDS011;9526;52.612;13.300;2023-07-28T09:37:54;1.40;;;1.30;;
18796;SDS011;9526;52.612;13.300;2023-07-28T09:40:20;1.65;;;1.55;;
18796;SDS011;9526;52.612;13.300;2023-07-28T09:42:45;1.92;;;1.38;;
18796;SDS011;9526;52.612;13.300;2023-07-28T09:45:15;1.42;;;1.33;;
18796;SDS011;9526;52.612;13.300;2023-07-28T09:47:58;1.27;;;1.17;;
18796;SDS011;9526;52.612;13.300;2023-07-28T09:50:24;1.40;;;1.30;;
18796;SDS011;9526;52.612;13.300;2023-07-28T09:52:53;1.25;;;1.10;;
18796;SDS011;9526;52.612;13.300;2023-07-28T09:55:21;1.50;;;1.30;;
18796;SDS011;9526;52.612;13.300;2023-07-28T09:57:46;1.40;;;1.30;;
18796;SDS011;9526;52.612;13.300;2023-07-28T10:00:14;3.63;;;1.20;;
18796;SDS011;9526;52.612;13.300;2023-07-28T10:02:40;1.10;;;1.00;;
18796;SDS011;9526;52.612;13.300;2023-07-28T10:05:04;1.73;;;1.20;;
18796;SDS011;9526;52.612;13.300;2023-07-28T10:07:29;1.20;;;1.10;;
18796;SDS011;9526;52.612;13.300;2023-07-28T10:09:55;3.20;;;1.20;;
18796;SDS011;9526;52.612;13.300;2023-07-28T10:12:18;1.40;;;1.30;;
18796;SDS011;9526;52.612;13.300;2023-07-28T10:14:47;2.75;;;1.60;;
18796;SDS011;9526;52.612;13.300;2023-07-28T10:17:23;1.20;;;1.10;;
18796;SDS011;9526;52.612;13.300;2023-07-28T10:19:55;1.15;;;1.00;;
18796;SDS011;9526;52.612;13.300;2023-07-28T10:22:20;1.10;;;1.05;;
18796;SDS011;9526;52.612;13.300;2023-07-28T10:24:50;1.50;;;1.40;;
18796;SDS011;9526;52.612;13.300;2023-07-28T10:27:19;1.98;;;1.17;;
18796;SDS011;9526;52.612;13.300;2023-07-28T10:29:55;3.72;;;1.60;;
18796;SDS011;9526;52.612;13.300;2023-07-28T10:32:25;4.63;;;1.95;;
18796;SDS011;9526;52.612;13.300;2023-07-28T10:34:58;4.40;;;1.30;;
18796;SDS011;9526;52.612;13.300;2023-07-28T10:37:22;0.60;;;0.60;;
18796;SDS011;9526;52.612;13.300;2023-07-28T10:39:46;3.63;;;0.80;;
18796;SDS011;9526;52.612;13.300;2023-07-28T10:42:10;0.93;;;0.85;;
18796;SDS011;9526;52.612;13.300;2023-07-28T10:44:36;1.75;;;1.05;;
18796;SDS011;9526;52.612;13.300;2023-07-28T10:47:00;1.23;;;0.90;;
18796;SDS011;9526;52.612;13.300;2023-07-28T10:49:24;1.52;;;1.00;;
18796;SDS011;9526;52.612;13.300;2023-07-28T10:51:48;1.05;;;0.90;;
18796;SDS011;9526;52.612;13.300;2023-07-28T10:54:12;1.25;;;0.90;;
18796;SDS011;9526;52.612;13.300;2023-07-28T10:56:39;0.82;;;0.80;;
18796;SDS011;9526;52.612;13.300;2023-07-28T10:59:03;3.70;;;1.05;;
18796;SDS011;9526;52.612;13.300;2023-07-28T11:01:32;1.25;;;0.80;;
18796;SDS011;9526;52.612;13.300;2023-07-28T11:03:57;0.88;;;0.85;;
18796;SDS011;9526;52.612;13.300;2023-07-28T11:06:29;2.25;;;0.98;;
18796;SDS011;9526;52.612;13.300;2023-07-28T11:08:54;1.45;;;0.95;;
18796;SDS011;9526;52.612;13.300;2023-07-28T11:11:18;1.55;;;0.98;;
18796;SDS011;9526;52.612;13.300;2023-07-28T11:13:42;1.30;;;0.88;;
18796;SDS011;9526;52.612;13.300;2023-07-28T11:16:06;1.52;;;1.15;;
18796;SDS011;9526;52.612;13.300;2023-07-28T11:18:35;1.08;;;0.98;;
18796;SDS011;9526;52.612;13.300;2023-07-28T11:20:58;0.82;;;0.70;;
18796;SDS011;9526;52.612;13.300;2023-07-28T11:23:22;1.33;;;0.85;;
18796;SDS011;9526;52.612;13.300;2023-07-28T11:25:46;1.42;;;0.77;;
18796;SDS011;9526;52.612;13.300;2023-07-28T11:28:10;1.20;;;0.80;;
18796;SDS011;9526;52.612;13.300;2023-07-28T11:30:35;1.17;;;0.70;;
18796;SDS011;9526;52.612;13.300;2023-07-28T11:33:00;0.70;;;0.70;;
18796;SDS011;9526;52.612;13.300;2023-07-28T11:35:27;1.88;;;0.82;;
18796;SDS011;9526;52.612;13.300;2023-07-28T11:37:52;1.00;;;0.88;;
18796;SDS011;9526;52.612;13.300;2023-07-28T11:40:17;0.90;;;0.80;;
18796;SDS011;9526;52.612;13.300;2023-07-28T11:42:44;0.80;;;0.80;;
18796;SDS011;9526;52.612;13.300;2023-07-28T11:45:12;0.98;;;0.90;;
18796;SDS011;9526;52.612;13.300;2023-07-28T11:47:37;1.20;;;1.10;;
18796;SDS011;9526;52.612;13.300;2023-07-28T11:50:01;1.10;;;0.98;;
18796;SDS011;9526;52.612;13.300;2023-07-28T11:52:30;1.23;;;1.13;;
18796;SDS011;9526;52.612;13.300;2023-07-28T11:54:54;1.48;;;1.38;;
18796;SDS011;9526;52.612;13.300;2023-07-28T11:57:18;1.38;;;1.27;;
18796;SDS011;9526;52.612;13.300;2023-07-28T11:59:42;1.40;;;1.23;;
18796;SDS011;9526;52.612;13.300;2023-07-28T12:02:06;1.30;;;1.20;;
18796;SDS011;9526;52.612;13.300;2023-07-28T12:04:35;1.48;;;1.38;;
18796;SDS011;9526;52.612;13.300;2023-07-28T12:07:04;2.70;;;1.42;;
18796;SDS011;9526;52.612;13.300;2023-07-28T12:09:32;1.30;;;1.20;;
18796;SDS011;9526;52.612;13.300;2023-07-28T12:11:57;2.75;;;1.30;;
18796;SDS011;9526;52.612;13.300;2023-07-28T12:14:30;3.20;;;1.60;;
18796;SDS011;9526;52.612;13.300;2023-07-28T12:16:58;1.63;;;1.38;;
18796;SDS011;9526;52.612;13.300;2023-07-28T12:19:27;1.60;;;1.45;;
18796;SDS011;9526;52.612;13.300;2023-07-28T12:21:51;1.42;;;1.33;;
18796;SDS011;9526;52.612;13.300;2023-07-28T12:24:14;1.63;;;1.50;;
18796;SDS011;9526;52.612;13.300;2023-07-28T12:26:39;1.50;;;1.40;;
18796;SDS011;9526;52.612;13.300;2023-07-28T12:29:03;3.58;;;1.50;;
18796;SDS011;9526;52.612;13.300;2023-07-28T12:31:30;2.13;;;1.40;;
18796;SDS011;9526;52.612;13.300;2023-07-28T12:34:06;5.78;;;1.50;;
18796;SDS011;9526;52.612;13.300;2023-07-28T12:36:30;2.05;;;1.52;;
18796;SDS011;9526;52.612;13.300;2023-07-28T12:39:14;1.67;;;1.58;;
18796;SDS011;9526;52.612;13.300;2023-07-28T12:41:42;1.98;;;1.52;;
18796;SDS011;9526;52.612;13.300;2023-07-28T12:44:26;2.53;;;1.90;;
18796;SDS011;9526;52.612;13.300;2023-07-28T12:46:52;2.97;;;1.67;;
18796;SDS011;9526;52.612;13.300;2023-07-28T12:49:16;2.05;;;1.60;;
18796;SDS011;9526;52.612;13.300;2023-07-28T12:51:42;2.63;;;1.40;;
18796;SDS011;9526;52.612;13.300;2023-07-28T12:54:18;1.40;;;1.30;;
18796;SDS011;9526;52.612;13.300;2023-07-28T12:56:45;2.13;;;1.30;;
18796;SDS011;9526;52.612;13.300;2023-07-28T12:59:08;3.10;;;1.65;;
18796;SDS011;9526;52.612;13.300;2023-07-28T13:01:37;1.50;;;1.40;;
18796;SDS011;9526;52.612;13.300;2023-07-28T13:04:00;1.42;;;1.30;;
18796;SDS011;9526;52.612;13.300;2023-07-28T13:06:24;2.25;;;1.50;;
18796;SDS011;9526;52.612;13.300;2023-07-28T13:08:48;1.05;;;0.95;;
18796;SDS011;9526;52.612;13.300;2023-07-28T13:11:14;1.50;;;1.33;;
18796;SDS011;9526;52.612;13.300;2023-07-28T13:13:40;1.67;;;1.38;;
18796;SDS011;9526;52.612;13.300;2023-07-28T13:16:04;1.13;;;1.02;;
18796;SDS011;9526;52.612;13.300;2023-07-28T13:18:32;1.25;;;1.15;;
18796;SDS011;9526;52.612;13.300;2023-07-28T13:20:56;1.40;;;1.30;;
18796;SDS011;9526;52.612;13.300;2023-07-28T13:23:19;1.45;;;1.20;;
18796;SDS011;9526;52.612;13.300;2023-07-28T13:25:43;1.25;;;1.15;;
18796;SDS011;9526;52.612;13.300;2023-07-28T13:28:07;1.45;;;1.30;;
18796;SDS011;9526;52.612;13.300;2023-07-28T13:30:34;1.35;;;1.25;;
18796;SDS011;9526;52.612;13.300;2023-07-28T13:32:58;1.17;;;1.08;;
18796;SDS011;9526;52.612;13.300;2023-07-28T13:35:22;1.42;;;1.17;;
18796;SDS011;9526;52.612;13.300;2023-07-28T13:37:46;1.08;;;1.05;;
18796;SDS011;9526;52.612;13.300;2023-07-28T13:40:10;1.23;;;1.13;;
18796;SDS011;9526;52.612;13.300;2023-07-28T13:42:34;1.30;;;1.20;;
18796;SDS011;9526;52.612;13.300;2023-07-28T13:44:57;1.40;;;1.30;;
18796;SDS011;9526;52.612;13.300;2023-07-28T13:47:23;1.30;;;1.20;;
18796;SDS011;9526;52.612;13.300;2023-07-28T13:49:46;0.90;;;0.90;;
18796;SDS011;9526;52.612;13.300;2023-07-28T13:52:12;1.23;;;1.13;;
18796;SDS011;9526;52.612;13.300;2023-07-28T13:54:42;1.38;;;1.10;;
18796;SDS011;9526;52.612;13.300;2023-07-28T13:57:09;1.25;;;1.15;;
18796;SDS011;9526;52.612;13.300;2023-07-28T13:59:33;1.30;;;1.20;;
18796;SDS011;9526;52.612;13.300;2023-07-28T14:01:56;1.20;;;1.10;;
18796;SDS011;9526;52.612;13.300;2023-07-28T14:04:22;0.98;;;0.80;;
18796;SDS011;9526;52.612;13.300;2023-07-28T14:06:45;1.00;;;1.00;;
18796;SDS011;9526;52.612;13.300;2023-07-28T14:09:09;1.15;;;0.93;;
18796;SDS011;9526;52.612;13.300;2023-07-28T14:11:34;1.30;;;0.98;;
18796;SDS011;9526;52.612;13.300;2023-07-28T14:13:58;0.85;;;0.82;;
18796;SDS011;9526;52.612;13.300;2023-07-28T14:16:22;1.60;;;0.90;;
18796;SDS011;9526;52.612;13.300;2023-07-28T14:18:46;0.90;;;0.90;;
18796;SDS011;9526;52.612;13.300;2023-07-28T14:21:13;1.10;;;1.00;;
18796;SDS011;9526;52.612;13.300;2023-07-28T14:23:37;0.95;;;0.95;;
18796;SDS011;9526;52.612;13.300;2023-07-28T14:26:01;1.00;;;0.90;;
18796;SDS011;9526;52.612;13.300;2023-07-28T14:28:25;1.27;;;1.00;;
18796;SDS011;9526;52.612;13.300;2023-07-28T14:30:49;0.80;;;0.80;;
18796;SDS011;9526;52.612;13.300;2023-07-28T14:33:14;0.77;;;0.75;;
18796;SDS011;9526;52.612;13.300;2023-07-28T14:35:38;0.73;;;0.73;;
18796;SDS011;9526;52.612;13.300;2023-07-28T14:38:03;0.90;;;0.90;;
18796;SDS011;9526;52.612;13.300;2023-07-28T14:40:27;0.85;;;0.73;;